Portada
METAR-TAF:

METAR-TAF

Aeropuertos :

Dax, Francia

Seyresse

latitud: 43-41N, longitud: 001-04W, altitud: 32 m

Observación

El informe se hizo hace 32 minutos, a las 04:00 UTC
Viento 2 kt con dirección variable
Temperatura 17°C
Humedad 82%
Presión 1014 hPa
Visibilidad 10 km o más

METAR: LFBY 210400Z AUTO VRB02KT 9999 // OVC040/// ///CB 17/14 Q1014

Hora: 06:32 (04:32 UTC)

Pronóstico

El informe se hizo hace 20 horas y 32 minutos, a las 08:00 UTC
Pronóstico válido del 20 a las 09 UTC al 20 a las 18 UTC
Viento 5 kt del oeste-suroeste
Visibilidad 10 km o más
Nubes dispersas a una altura de 2000 ft
Cielo nuboso a una altura de 4000 ft
Temporalmente
del 20 a las 09 UTC al 20 a las 17 UTC
Visibilidad: 5000 m
chaparrones de lluvia

TAF: LFBY 200800Z 2009/2018 24005KT 9999 SCT020 BKN040 TEMPO 2009/2017 5000 -SHRA

Observaciones y pronósticos meteorológicos de más de 4000 aeropuertos (mensajes METAR y TAF).

Los puntos amarillos y rojos representan las estaciones disponibles.

Ponga el ratón en el punto deseado para ver el nombre de la estación.

Haga clic para ver las observaciones y los pronósticos meteorológicos.

Para cambiar el mapa : haga clic en los botones verdes con una cruz de color negro para hacer un zoom, en el botón verde con un guión para alejar o en las flechas verdes para mapas adyacentes.


METAR-TAF: